Главная страница
METAR-TAF:

METAR-TAF

Аэропорты :

Оренбург, Россия

широта: 51-46-48N, долгота: 055-07-12E, высота над уровнем моря: 109 м

Текущие метеонаблюдения

Эта сводка был подготовлена 21 минут назад, в 07:00 UTC
Ветер 8 Узел от западный-юго-западный, изменяющийся между южный-юго-западный и западно-северо-западный
Температура 21°C
Влажность 28%
Давление 1030 hPa
Видимость 10 км и более
Нет облачности ниже 1500 м, и нет кучево-дождевой облачности

METAR: UWOO 290700Z 25004MPS 210V300 CAVOK 21/02 Q1030 R26/CLRD65 NOSIG RMK QFE762/1016

Время: 12:21 (07:21 UTC)

Прогноз

Эта сводка был подготовлена 2 часа и 21 минут назад, в 05:00 UTC
Прогноз действительный с 29-го 06 UTC до 30-го 06 UTC
Ветер 6 Узел от западный с порывами до 16 Узел
Видимость 10 км и более
Отдельные облака на высоте 4000 фута
временами
С 30-го 00 UTC до 30-го 06 UTC
Ветер 6 Узел от северно-северо-западный с порывами до 16 Узел

TAF: UWOO 290500Z 2906/3006 28003G08MPS 9999 SCT040 TX22/2911Z TN04/3001Z TEMPO 3000/3006 33003G08MPS

Метеонаблюдения и прогнозы для более 4000 аэропортов (сводки METAR и TAF).

Имеющиеся станции представлены на карте желтыми и красными точками.

Чтобы увидеть название станции, наведите на нее мышь.

Затем щелкните, чтобы увидеть метеонаблюдения и метеопрогнозы.

Управление картой: чтобы увеличить масштаб, щелкните зеленые кнопки с черным крестиком; чтобы уменьшить масштаб, щелкните зеленую кнопку с тире; для просмотра соседних карт щелкайте зеленые стрелки.


METAR-TAF: